• Join FlightAware (Why Join?)
  • Login
  • US Flag 
Rudolph Flight #1: Arrived! 
03:30PM EST


 

Airport Tracker/Info


-or-


 

Live Flight TrackerFlight Track Log ✈ N770NC ✈ 16-Jun-2013 ✈ KGPT - KATL

Flight Track Log - Related Links

Times and Time Zones

All times are in EDT time to prevent confusion due to time zone crossing. See the N770NC flight status page for this flight to view local times or setup timezone preferences in your user account.

Time Position Orientation Groundspeed Altitude Reporting Facility
EDT Latitude Longitude Course Direction KTS MPH feet Rate Location/Type
06:14PM 30.3275 -88.9678 58° Northeast 235 270 2,500  Level Houston Center
06:15PM 30.7724 -88.8861 12° North  Level FlightAware Approximate
06:15PM 30.3403 -88.8883 79° East 267 307 5,000  Level Houston Center
06:16PM 30.8702 -88.8461 20° North  Level FlightAware Approximate
06:16PM 30.4075 -88.8503 26° Northeast 267 307 7,100  Level Houston Center
06:17PM 30.9316 -88.7585 55° Northeast  Level FlightAware Approximate
06:17PM 30.4786 -88.8131 24° Northeast 273 314 9,100  Level Houston Center
06:18PM 30.9888 -88.6591 58° Northeast  Level FlightAware Approximate
06:18PM 30.5714 -88.7614 26° Northeast 302 348 10,600  Level Houston Center
06:19PM 31.0434 -88.5577 58° Northeast  Level FlightAware Approximate
06:19PM 30.6597 -88.7083 27° Northeast 346 398 12,000  Level Houston Center
06:20PM 30.7539 -88.6600 24° Northeast 364 419 13,700 1,680 Climbing Houston Center
06:21PM 30.8564 -88.6194 19° North 383 441 15,500 1,620 Climbing Houston Center
06:22PM 30.9603 -88.5728 21° North 395 455 17,100 1,500 Climbing Houston Center
06:23PM 31.0603 -88.5078 29° Northeast 407 468 18,600 1,380 Climbing Houston Center
06:24PM 31.1439 -88.4136 44° Northeast 417 480 20,000 1,560 Climbing Houston Center
06:25PM 31.2272 -88.2736 55° Northeast 428 493 21,900 1,380 Climbing Houston Center
06:26PM 31.3075 -88.1683 48° Northeast 428 493 22,900 1,020 Climbing Houston Center
06:27PM 31.3825 -88.0517 53° Northeast 445 512 24,100 960 Climbing Houston Center
06:28PM 31.4583 -87.9344 53° Northeast 448 516 24,900 900 Climbing Houston Center
06:29PM 31.5344 -87.8144 53° Northeast 457 526 26,000 960 Climbing Houston Center
06:30PM 31.6117 -87.6928 53° Northeast 464 534 26,900 900 Climbing Houston Center
06:31PM 31.6747 -87.5917 54° Northeast 456 525 27,600 780 Climbing Atlanta Center
06:32PM 31.7533 -87.4653 54° Northeast 463 533 28,300 600 Climbing Atlanta Center
06:33PM 31.8297 -87.3411 54° Northeast 463 533 28,900 300 Climbing Atlanta Center
06:34PM 31.8978 -87.2214 56° Northeast 469 540 29,000  Climbing Atlanta Center
06:35PM 31.9803 -87.0897 54° Northeast 487 560 29,000  Level Atlanta Center
06:36PM 32.0606 -86.9575 54° Northeast 492 566 29,000 -60 Level Atlanta Center
06:37PM 32.1431 -86.8253 54° Northeast 492 566 28,900 -540 Descending Atlanta Center
06:38PM 32.2381 -86.6811 52° Northeast 497 572 28,000 -900 Descending Atlanta Center
06:39PM 32.3242 -86.5508 52° Northeast 497 572 27,200 -840 Descending Atlanta Center
06:40PM 32.4081 -86.4253 52° Northeast 497 572 26,400 -780 Descending Atlanta Center
06:41PM 32.4711 -86.3039 58° Northeast 486 559 25,700 -840 Descending Atlanta Center
06:42PM 32.5569 -86.1608 55° Northeast 479 551 24,800 -960 Descending Atlanta Center
06:43PM 32.6303 -86.0292 56° Northeast 479 551 23,800 -960 Descending Atlanta Center
06:44PM 32.7011 -85.9025 56° Northeast 479 551 22,900 -960 Descending Atlanta Center
06:45PM 32.7678 -85.7681 59° Northeast 474 545 21,900 -960 Descending Atlanta Center
06:46PM 32.8342 -85.6408 58° Northeast 456 525 21,000 -540 Descending Atlanta Center
06:47PM 32.8964 -85.5108 60° Northeast 451 519 20,900 -420 Descending Atlanta Center
06:48PM 32.9583 -85.3756 61° Northeast 451 519 20,200 -1,800 Descending Atlanta Center
06:49PM 33.0244 -85.2406 60° Northeast 456 525 17,300 -2,820 Descending Atlanta Center
06:50PM 33.1108 -85.1400 44° Northeast 445 512 14,600 -1,740 Descending Atlanta Center
06:51PM 33.1889 -85.0467 45° Northeast 415 478 13,900 -720 Descending Atlanta Center
06:52PM 33.2608 -84.9406 51° Northeast 404 465 13,200 -960 Descending Atlanta Center
06:53PM 33.3283 -84.8344 53° Northeast 399 459 12,000 -600 Descending Atlanta Center
06:54PM 33.3958 -84.7306 52° Northeast 392 451 12,000  Level Atlanta Center
06:55PM 33.4692 -84.6339 48° Northeast 390 449 12,000 -60 Level Atlanta Center
06:56PM 33.5322 -84.5572 45° Northeast 348 400 11,900 -660 Descending Atlanta Center
06:57PM 33.5556 -84.4750 71° East 243 280 10,700 -1,500 Descending Atlanta Center
06:58PM 33.5600 -84.3903 86° East 255 293 9,000 -1,680 Descending Atlanta Center
06:59PM 33.5603 -84.3056 90° East 255 293 7,400 -1,620 Descending Atlanta Center
07:00PM 33.5667 -84.2167 85° East 229 264 5,600 -1,800 Descending Atlanta TRACON
07:01PM 33.5833 -84.1667 68° East 257 296 3,800 -1,320 Descending Atlanta TRACON
07:02PM 33.6167 -84.2333 301° West 225 259 3,000 -540 Descending Atlanta TRACON
07:03PM 33.6167 -84.3000 270° West 214 246 2,800 -600 Descending Atlanta TRACON
07:04PM 33.6167 -84.3667 270° West 161 185 1,900 -840 Descending Atlanta TRACON
07:05PM 33.6167 -84.4167 270° West 157 181 1,200 -780 Descending Atlanta TRACON